sensor_id;sensor_type;location;lat;lon;timestamp;pressure;altitude;pressure_sealevel;temperature;humidity
75497;BME280;64074;47.540;19.072;2023-03-05T00:01:29;100362.63;;;2.77;64.98
75497;BME280;64074;47.540;19.072;2023-03-05T00:04:35;100359.22;;;2.82;65.20
75497;BME280;64074;47.540;19.072;2023-03-05T00:07:38;100365.16;;;2.84;64.29
75497;BME280;64074;47.540;19.072;2023-03-05T00:10:41;100370.25;;;2.86;64.51
75497;BME280;64074;47.540;19.072;2023-03-05T00:13:45;100367.81;;;2.67;65.41
75497;BME280;64074;47.540;19.072;2023-03-05T00:16:48;100354.84;;;2.59;65.44
75497;BME280;64074;47.540;19.072;2023-03-05T00:19:51;100358.97;;;2.84;63.94
75497;BME280;64074;47.540;19.072;2023-03-05T00:22:55;100366.69;;;2.80;65.11
75497;BME280;64074;47.540;19.072;2023-03-05T00:26:01;100372.13;;;2.85;64.79
75497;BME280;64074;47.540;19.072;2023-03-05T00:29:07;100377.22;;;2.87;64.07
75497;BME280;64074;47.540;19.072;2023-03-05T00:32:12;100373.25;;;2.56;65.08
75497;BME280;64074;47.540;19.072;2023-03-05T00:35:15;100376.16;;;2.71;64.71
75497;BME280;64074;47.540;19.072;2023-03-05T00:38:18;100368.06;;;2.83;64.53
75497;BME280;64074;47.540;19.072;2023-03-05T00:41:22;100351.13;;;2.77;64.42
75497;BME280;64074;47.540;19.072;2023-03-05T00:44:25;100352.41;;;2.74;64.28
75497;BME280;64074;47.540;19.072;2023-03-05T00:47:28;100348.34;;;2.55;65.46
75497;BME280;64074;47.540;19.072;2023-03-05T00:50:31;100351.38;;;2.75;64.53
75497;BME280;64074;47.540;19.072;2023-03-05T00:53:35;100345.34;;;2.85;64.64
75497;BME280;64074;47.540;19.072;2023-03-05T00:56:38;100339.19;;;2.85;64.25
75497;BME280;64074;47.540;19.072;2023-03-05T00:59:41;100341.53;;;2.81;63.70
75497;BME280;64074;47.540;19.072;2023-03-05T01:02:45;100335.13;;;2.82;63.98
75497;BME280;64074;47.540;19.072;2023-03-05T01:05:49;100338.63;;;2.83;64.31
75497;BME280;64074;47.540;19.072;2023-03-05T01:08:51;100338.28;;;2.79;64.22
75497;BME280;64074;47.540;19.072;2023-03-05T01:11:55;100339.28;;;2.73;64.51
75497;BME280;64074;47.540;19.072;2023-03-05T01:14:57;100337.56;;;2.67;64.59
75497;BME280;64074;47.540;19.072;2023-03-05T01:18:01;100345.97;;;2.92;63.43
75497;BME280;64074;47.540;19.072;2023-03-05T01:21:05;100337.47;;;2.95;63.30
75497;BME280;64074;47.540;19.072;2023-03-05T01:24:08;100340.06;;;2.90;63.16
75497;BME280;64074;47.540;19.072;2023-03-05T01:27:11;100346.47;;;2.89;63.21
75497;BME280;64074;47.540;19.072;2023-03-05T01:30:15;100354.59;;;2.94;62.96
75497;BME280;64074;47.540;19.072;2023-03-05T01:33:18;100356.19;;;2.95;63.16
75497;BME280;64074;47.540;19.072;2023-03-05T01:36:22;100350.78;;;3.07;63.12
75497;BME280;64074;47.540;19.072;2023-03-05T01:39:28;100353.78;;;2.94;62.77
75497;BME280;64074;47.540;19.072;2023-03-05T01:42:32;100345.03;;;2.98;62.90
75497;BME280;64074;47.540;19.072;2023-03-05T01:45:35;100356.75;;;2.97;63.08
75497;BME280;64074;47.540;19.072;2023-03-05T01:48:41;100348.84;;;3.02;63.06
75497;BME280;64074;47.540;19.072;2023-03-05T01:54:55;100346.03;;;3.14;62.86
75497;BME280;64074;47.540;19.072;2023-03-05T01:58:07;100346.47;;;3.23;62.18
75497;BME280;64074;47.540;19.072;2023-03-05T02:01:12;100346.91;;;2.98;62.81
75497;BME280;64074;47.540;19.072;2023-03-05T02:04:17;100352.31;;;3.03;62.91
75497;BME280;64074;47.540;19.072;2023-03-05T02:07:22;100361.56;;;3.12;63.07
75497;BME280;64074;47.540;19.072;2023-03-05T02:10:28;100346.03;;;3.14;62.67
75497;BME280;64074;47.540;19.072;2023-03-05T02:13:34;100351.03;;;3.05;63.20
75497;BME280;64074;47.540;19.072;2023-03-05T02:16:41;100348.28;;;2.84;64.00
75497;BME280;64074;47.540;19.072;2023-03-05T02:19:56;100350.59;;;2.97;63.58
75497;BME280;64074;47.540;19.072;2023-03-05T02:23:04;100349.72;;;2.91;63.42
75497;BME280;64074;47.540;19.072;2023-03-05T02:26:09;100347.53;;;2.88;63.54
75497;BME280;64074;47.540;19.072;2023-03-05T02:29:16;100347.91;;;3.14;63.70
75497;BME280;64074;47.540;19.072;2023-03-05T02:32:20;100345.31;;;3.19;63.33
75497;BME280;64074;47.540;19.072;2023-03-05T02:35:23;100335.81;;;3.11;63.54
75497;BME280;64074;47.540;19.072;2023-03-05T02:38:26;100342.41;;;3.03;63.54
75497;BME280;64074;47.540;19.072;2023-03-05T02:41:29;100343.63;;;2.96;63.96
75497;BME280;64074;47.540;19.072;2023-03-05T02:44:33;100337.13;;;3.08;63.63
75497;BME280;64074;47.540;19.072;2023-03-05T02:47:36;100335.91;;;3.16;63.27
75497;BME280;64074;47.540;19.072;2023-03-05T02:50:40;100333.31;;;3.04;63.91
75497;BME280;64074;47.540;19.072;2023-03-05T02:53:43;100337.81;;;2.99;64.60
75497;BME280;64074;47.540;19.072;2023-03-05T02:56:47;100332.91;;;2.96;64.70
75497;BME280;64074;47.540;19.072;2023-03-05T02:59:51;100328.16;;;2.98;64.12
75497;BME280;64074;47.540;19.072;2023-03-05T03:02:53;100309.22;;;3.04;64.01
75497;BME280;64074;47.540;19.072;2023-03-05T03:05:56;100324.16;;;3.00;64.12
75497;BME280;64074;47.540;19.072;2023-03-05T03:08:59;100321.16;;;2.97;65.03
75497;BME280;64074;47.540;19.072;2023-03-05T03:12:03;100325.59;;;3.08;64.20
75497;BME280;64074;47.540;19.072;2023-03-05T03:15:08;100312.22;;;3.08;64.10
75497;BME280;64074;47.540;19.072;2023-03-05T03:18:11;100310.03;;;3.05;63.90
75497;BME280;64074;47.540;19.072;2023-03-05T03:21:22;100320.34;;;2.96;64.44
75497;BME280;64074;47.540;19.072;2023-03-05T03:24:28;100319.44;;;3.07;64.57
75497;BME280;64074;47.540;19.072;2023-03-05T03:27:31;100309.22;;;3.04;64.60
75497;BME280;64074;47.540;19.072;2023-03-05T03:30:34;100315.38;;;3.05;64.43
75497;BME280;64074;47.540;19.072;2023-03-05T03:33:37;100319.63;;;3.01;64.93
75497;BME280;64074;47.540;19.072;2023-03-05T03:36:42;100306.13;;;3.13;64.69
75497;BME280;64074;47.540;19.072;2023-03-05T03:39:44;100301.19;;;3.04;64.85
75497;BME280;64074;47.540;19.072;2023-03-05T03:42:50;100296.78;;;3.15;64.69
75497;BME280;64074;47.540;19.072;2023-03-05T03:45:54;100314.09;;;3.07;64.75
75497;BME280;64074;47.540;19.072;2023-03-05T03:48:57;100316.03;;;3.12;64.96
75497;BME280;64074;47.540;19.072;2023-03-05T03:51:59;100314.09;;;3.07;64.99
75497;BME280;64074;47.540;19.072;2023-03-05T03:55:02;100315.94;;;3.24;64.35
75497;BME280;64074;47.540;19.072;2023-03-05T03:58:05;100322.94;;;3.08;64.66
75497;BME280;64074;47.540;19.072;2023-03-05T04:01:09;100310.72;;;3.17;64.58
75497;BME280;64074;47.540;19.072;2023-03-05T04:04:13;100315.69;;;3.25;63.86
75497;BME280;64074;47.540;19.072;2023-03-05T04:07:16;100315.44;;;3.27;63.98
75497;BME280;64074;47.540;19.072;2023-03-05T04:10:20;100325.97;;;3.33;64.33
75497;BME280;64074;47.540;19.072;2023-03-05T04:13:23;100317.97;;;3.38;64.18
75497;BME280;64074;47.540;19.072;2023-03-05T04:16:26;100320.47;;;3.23;64.56
75497;BME280;64074;47.540;19.072;2023-03-05T04:19:29;100309.88;;;3.33;64.70
75497;BME280;64074;47.540;19.072;2023-03-05T04:22:32;100314.25;;;3.39;64.45
75497;BME280;64074;47.540;19.072;2023-03-05T04:25:36;100316.41;;;3.43;64.56
75497;BME280;64074;47.540;19.072;2023-03-05T04:28:40;100322.25;;;3.18;64.83
75497;BME280;64074;47.540;19.072;2023-03-05T04:31:44;100313.94;;;3.36;64.47
75497;BME280;64074;47.540;19.072;2023-03-05T04:34:46;100318.59;;;3.46;63.89
75497;BME280;64074;47.540;19.072;2023-03-05T04:37:49;100313.75;;;3.43;64.02
75497;BME280;64074;47.540;19.072;2023-03-05T04:40:51;100314.69;;;3.31;64.24
75497;BME280;64074;47.540;19.072;2023-03-05T04:43:55;100309.50;;;3.47;63.65
75497;BME280;64074;47.540;19.072;2023-03-05T04:46:58;100309.00;;;3.28;64.62
75497;BME280;64074;47.540;19.072;2023-03-05T04:50:03;100308.94;;;3.45;64.06
75497;BME280;64074;47.540;19.072;2023-03-05T04:53:06;100313.75;;;3.43;64.14
75497;BME280;64074;47.540;19.072;2023-03-05T04:56:09;100311.97;;;3.48;63.95
75497;BME280;64074;47.540;19.072;2023-03-05T04:59:12;100308.53;;;3.53;64.16
75497;BME280;64074;47.540;19.072;2023-03-05T05:02:15;100301.72;;;3.45;64.07
75497;BME280;64074;47.540;19.072;2023-03-05T05:05:22;100303.13;;;3.48;64.42
75497;BME280;64074;47.540;19.072;2023-03-05T05:08:27;100300.50;;;3.53;63.50
75497;BME280;64074;47.540;19.072;2023-03-05T05:11:31;100303.91;;;3.48;63.96
75497;BME280;64074;47.540;19.072;2023-03-05T05:14:33;100288.47;;;3.55;63.80
75497;BME280;64074;47.540;19.072;2023-03-05T05:17:37;100309.50;;;3.47;64.43
75497;BME280;64074;47.540;19.072;2023-03-05T05:20:39;100317.69;;;3.57;64.07
75497;BME280;64074;47.540;19.072;2023-03-05T05:23:42;100315.88;;;3.62;63.60
75497;BME280;64074;47.540;19.072;2023-03-05T05:26:45;100322.53;;;3.60;63.98
75497;BME280;64074;47.540;19.072;2023-03-05T05:29:48;100319.59;;;3.39;64.41
75497;BME280;64074;47.540;19.072;2023-03-05T05:32:54;100317.38;;;3.75;63.34
75497;BME280;64074;47.540;19.072;2023-03-05T05:35:57;100326.53;;;3.79;63.35
75497;BME280;64074;47.540;19.072;2023-03-05T05:39:00;100329.28;;;3.84;63.09
75497;BME280;64074;47.540;19.072;2023-03-05T05:42:03;100319.00;;;3.76;63.46
75497;BME280;64074;47.540;19.072;2023-03-05T05:45:07;100331.94;;;3.84;63.66
75497;BME280;64074;47.540;19.072;2023-03-05T05:48:10;100341.13;;;3.88;63.30
75497;BME280;64074;47.540;19.072;2023-03-05T05:51:16;100342.31;;;3.76;63.66
75497;BME280;64074;47.540;19.072;2023-03-05T05:54:21;100332.00;;;3.89;63.17
75497;BME280;64074;47.540;19.072;2023-03-05T05:57:24;100337.75;;;3.76;63.97
75497;BME280;64074;47.540;19.072;2023-03-05T06:00:27;100349.22;;;3.93;63.21
75497;BME280;64074;47.540;19.072;2023-03-05T06:03:30;100347.09;;;3.95;62.62
75497;BME280;64074;47.540;19.072;2023-03-05T06:06:33;100352.44;;;3.95;62.31
75497;BME280;64074;47.540;19.072;2023-03-05T06:09:36;100348.31;;;4.10;62.37
75497;BME280;64074;47.540;19.072;2023-03-05T06:12:39;100349.94;;;4.11;62.37
75497;BME280;64074;47.540;19.072;2023-03-05T06:15:42;100340.63;;;4.18;62.10
75497;BME280;64074;47.540;19.072;2023-03-05T06:18:45;100342.56;;;4.23;61.83
75497;BME280;64074;47.540;19.072;2023-03-05T06:21:49;100342.66;;;4.33;61.37
75497;BME280;64074;47.540;19.072;2023-03-05T06:24:53;100350.47;;;4.35;61.48
75497;BME280;64074;47.540;19.072;2023-03-05T06:27:56;100350.44;;;4.08;62.68
75497;BME280;64074;47.540;19.072;2023-03-05T06:31:04;100340.19;;;4.26;61.63
75497;BME280;64074;47.540;19.072;2023-03-05T06:34:09;100347.69;;;4.51;61.03
75497;BME280;64074;47.540;19.072;2023-03-05T06:37:12;100356.97;;;4.44;61.02
75497;BME280;64074;47.540;19.072;2023-03-05T06:40:15;100349.34;;;4.57;60.86
75497;BME280;64074;47.540;19.072;2023-03-05T06:43:18;100353.00;;;4.46;60.87
75497;BME280;64074;47.540;19.072;2023-03-05T06:46:26;100350.69;;;4.60;60.89
75497;BME280;64074;47.540;19.072;2023-03-05T06:49:29;100358.84;;;4.43;61.23
75497;BME280;64074;47.540;19.072;2023-03-05T06:52:33;100353.63;;;4.58;60.87
75497;BME280;64074;47.540;19.072;2023-03-05T06:55:36;100351.44;;;4.50;61.10
75497;BME280;64074;47.540;19.072;2023-03-05T06:58:43;100359.78;;;4.86;60.19
75497;BME280;64074;47.540;19.072;2023-03-05T07:01:48;100356.41;;;4.69;60.42
75497;BME280;64074;47.540;19.072;2023-03-05T07:04:51;100342.78;;;4.75;60.58
75497;BME280;64074;47.540;19.072;2023-03-05T07:07:55;100351.69;;;4.81;60.46
75497;BME280;64074;47.540;19.072;2023-03-05T07:10:58;100349.53;;;4.83;60.11
75497;BME280;64074;47.540;19.072;2023-03-05T07:14:02;100355.22;;;4.86;59.72
75497;BME280;64074;47.540;19.072;2023-03-05T07:17:06;100355.53;;;4.95;60.10
75497;BME280;64074;47.540;19.072;2023-03-05T07:20:09;100351.38;;;5.14;59.34
75497;BME280;64074;47.540;19.072;2023-03-05T07:23:12;100351.56;;;4.71;59.82
75497;BME280;64074;47.540;19.072;2023-03-05T07:26:15;100354.66;;;4.84;59.74
75497;BME280;64074;47.540;19.072;2023-03-05T07:29:19;100342.25;;;4.78;59.75
75497;BME280;64074;47.540;19.072;2023-03-05T07:32:22;100354.66;;;4.84;59.97
75497;BME280;64074;47.540;19.072;2023-03-05T07:35:26;100344.72;;;4.85;60.35
75497;BME280;64074;47.540;19.072;2023-03-05T07:38:30;100354.88;;;5.15;59.74
75497;BME280;64074;47.540;19.072;2023-03-05T07:41:34;100358.75;;;4.60;60.83
75497;BME280;64074;47.540;19.072;2023-03-05T07:44:36;100341.28;;;4.57;61.19
75497;BME280;64074;47.540;19.072;2023-03-05T07:47:40;100357.72;;;4.66;60.83
75497;BME280;64074;47.540;19.072;2023-03-05T07:50:44;100339.66;;;4.93;60.54
75497;BME280;64074;47.540;19.072;2023-03-05T07:53:48;100344.16;;;4.83;60.98
75497;BME280;64074;47.540;19.072;2023-03-05T07:56:53;100346.09;;;4.55;61.36
75497;BME280;64074;47.540;19.072;2023-03-05T07:59:56;100340.09;;;4.75;60.98
75497;BME280;64074;47.540;19.072;2023-03-05T08:03:00;100346.34;;;4.86;60.42
75497;BME280;64074;47.540;19.072;2023-03-05T08:06:05;100343.78;;;5.01;59.96
75497;BME280;64074;47.540;19.072;2023-03-05T08:09:10;100342.84;;;5.22;59.52
75497;BME280;64074;47.540;19.072;2023-03-05T08:12:13;100334.31;;;5.36;59.53
75497;BME280;64074;47.540;19.072;2023-03-05T08:15:17;100342.25;;;5.15;60.05
75497;BME280;64074;47.540;19.072;2023-03-05T08:18:20;100340.66;;;5.19;59.74
75497;BME280;64074;47.540;19.072;2023-03-05T08:21:26;100341.44;;;5.15;59.58
75497;BME280;64074;47.540;19.072;2023-03-05T08:24:30;100343.19;;;5.41;59.35
75497;BME280;64074;47.540;19.072;2023-03-05T08:27:40;100339.16;;;5.39;58.92
75497;BME280;64074;47.540;19.072;2023-03-05T08:30:52;100339.69;;;5.36;59.41
75497;BME280;64074;47.540;19.072;2023-03-05T08:33:57;100341.56;;;5.35;59.80
75497;BME280;64074;47.540;19.072;2023-03-05T08:37:00;100338.78;;;5.72;59.17
75497;BME280;64074;47.540;19.072;2023-03-05T08:40:04;100329.50;;;5.95;57.67
75497;BME280;64074;47.540;19.072;2023-03-05T08:43:07;100331.38;;;6.00;58.02
75497;BME280;64074;47.540;19.072;2023-03-05T08:46:14;100330.50;;;5.89;58.35
75497;BME280;64074;47.540;19.072;2023-03-05T08:49:18;100335.16;;;6.04;57.60
75497;BME280;64074;47.540;19.072;2023-03-05T08:52:21;100338.13;;;6.12;57.55
75497;BME280;64074;47.540;19.072;2023-03-05T08:55:25;100332.72;;;6.02;57.56
75497;BME280;64074;47.540;19.072;2023-03-05T08:58:27;100328.97;;;6.08;57.04
75497;BME280;64074;47.540;19.072;2023-03-05T09:01:31;100333.06;;;6.26;56.80
75497;BME280;64074;47.540;19.072;2023-03-05T09:04:36;100333.84;;;6.16;57.14
75497;BME280;64074;47.540;19.072;2023-03-05T09:07:39;100329.25;;;6.17;56.93
75497;BME280;64074;47.540;19.072;2023-03-05T09:10:43;100318.00;;;6.61;56.69
75497;BME280;64074;47.540;19.072;2023-03-05T09:13:46;100316.38;;;7.00;55.34
75497;BME280;64074;47.540;19.072;2023-03-05T09:16:49;100321.50;;;6.76;55.20
75497;BME280;64074;47.540;19.072;2023-03-05T09:19:53;100320.69;;;6.86;54.76
75497;BME280;64074;47.540;19.072;2023-03-05T09:22:56;100322.31;;;6.82;55.32
75497;BME280;64074;47.540;19.072;2023-03-05T09:25:58;100323.66;;;6.90;55.32
75497;BME280;64074;47.540;19.072;2023-03-05T09:29:02;100320.66;;;7.06;54.65
75497;BME280;64074;47.540;19.072;2023-03-05T09:32:06;100313.63;;;7.26;54.46
75497;BME280;64074;47.540;19.072;2023-03-05T09:35:09;100307.38;;;7.46;54.24
75497;BME280;64074;47.540;19.072;2023-03-05T09:38:11;100313.97;;;6.48;56.47
75497;BME280;64074;47.540;19.072;2023-03-05T09:44:50;100307.16;;;7.17;55.20
75497;BME280;64074;47.540;19.072;2023-03-05T09:48:18;100301.50;;;7.18;55.62
75497;BME280;64074;47.540;19.072;2023-03-05T09:51:24;100306.41;;;6.86;55.91
75497;BME280;64074;47.540;19.072;2023-03-05T09:54:41;100302.78;;;7.41;54.76
75497;BME280;64074;47.540;19.072;2023-03-05T09:57:49;100305.34;;;6.66;56.20
75497;BME280;64074;47.540;19.072;2023-03-05T10:01:01;100294.44;;;7.32;55.31
75497;BME280;64074;47.540;19.072;2023-03-05T10:04:19;100289.63;;;7.14;55.07
75497;BME280;64074;47.540;19.072;2023-03-05T10:07:29;100284.75;;;7.31;54.88
75497;BME280;64074;47.540;19.072;2023-03-05T10:10:42;100298.00;;;7.18;55.61
75497;BME280;64074;47.540;19.072;2023-03-05T10:13:46;100290.25;;;6.60;56.40
75497;BME280;64074;47.540;19.072;2023-03-05T10:26:51;100276.16;;;7.24;53.52
75497;BME280;64074;47.540;19.072;2023-03-05T10:40:34;100271.09;;;6.87;53.12
75497;BME280;64074;47.540;19.072;2023-03-05T10:43:43;100264.91;;;6.97;52.85
75497;BME280;64074;47.540;19.072;2023-03-05T10:46:50;100257.81;;;7.16;52.57
75497;BME280;64074;47.540;19.072;2023-03-05T10:49:56;100259.25;;;6.83;53.10
75497;BME280;64074;47.540;19.072;2023-03-05T10:53:12;100250.53;;;7.27;52.09
75497;BME280;64074;47.540;19.072;2023-03-05T10:56:18;100264.16;;;6.45;54.29
75497;BME280;64074;47.540;19.072;2023-03-05T10:59:22;100262.91;;;7.33;52.88
75497;BME280;64074;47.540;19.072;2023-03-05T11:02:26;100243.53;;;7.21;51.88
75497;BME280;64074;47.540;19.072;2023-03-05T11:08:38;100250.00;;;7.20;52.30
75497;BME280;64074;47.540;19.072;2023-03-05T11:11:40;100250.91;;;6.79;53.24
75497;BME280;64074;47.540;19.072;2023-03-05T11:18:19;100232.88;;;6.75;53.74
75497;BME280;64074;47.540;19.072;2023-03-05T11:21:24;100220.22;;;6.60;53.58
75497;BME280;64074;47.540;19.072;2023-03-05T11:24:29;100218.19;;;7.17;52.32
75497;BME280;64074;47.540;19.072;2023-03-05T11:27:37;100222.13;;;7.45;51.35
75497;BME280;64074;47.540;19.072;2023-03-05T11:30:41;100222.91;;;6.70;53.14
75497;BME280;64074;47.540;19.072;2023-03-05T11:33:58;100222.78;;;7.16;51.92
75497;BME280;64074;47.540;19.072;2023-03-05T11:37:05;100221.16;;;7.15;51.68
75497;BME280;64074;47.540;19.072;2023-03-05T11:40:23;100205.88;;;6.90;51.36
75497;BME280;64074;47.540;19.072;2023-03-05T11:43:28;100212.94;;;6.76;51.65
75497;BME280;64074;47.540;19.072;2023-03-05T11:46:47;100212.94;;;6.76;51.84
75497;BME280;64074;47.540;19.072;2023-03-05T11:49:54;100202.69;;;6.78;51.43
75497;BME280;64074;47.540;19.072;2023-03-05T11:53:10;100196.72;;;6.86;52.08
75497;BME280;64074;47.540;19.072;2023-03-05T11:56:30;100186.22;;;6.95;51.70
75497;BME280;64074;47.540;19.072;2023-03-05T11:59:36;100200.88;;;7.33;51.00
75497;BME280;64074;47.540;19.072;2023-03-05T12:02:42;100193.97;;;7.06;51.23
75497;BME280;64074;47.540;19.072;2023-03-05T12:05:49;100190.66;;;7.25;51.49
75497;BME280;64074;47.540;19.072;2023-03-05T12:08:56;100181.94;;;7.43;50.58
75497;BME280;64074;47.540;19.072;2023-03-05T12:12:11;100179.78;;;7.45;50.74
75497;BME280;64074;47.540;19.072;2023-03-05T12:18:53;100163.16;;;7.67;49.75
75497;BME280;64074;47.540;19.072;2023-03-05T12:21:59;100171.97;;;7.83;49.33
75497;BME280;64074;47.540;19.072;2023-03-05T12:25:26;100153.94;;;7.78;49.39
75497;BME280;64074;47.540;19.072;2023-03-05T12:31:40;100136.06;;;8.16;47.78
75497;BME280;64074;47.540;19.072;2023-03-05T12:34:48;100138.75;;;8.21;47.61
75497;BME280;64074;47.540;19.072;2023-03-05T12:37:57;100141.28;;;8.08;46.78
75497;BME280;64074;47.540;19.072;2023-03-05T12:44:27;100127.38;;;8.24;46.50
75497;BME280;64074;47.540;19.072;2023-03-05T12:47:30;100122.91;;;8.39;45.87
75497;BME280;64074;47.540;19.072;2023-03-05T12:53:40;100115.97;;;8.80;45.31
75497;BME280;64074;47.540;19.072;2023-03-05T12:56:44;100118.03;;;8.64;45.12
75497;BME280;64074;47.540;19.072;2023-03-05T12:59:53;100108.94;;;9.41;43.25
75497;BME280;64074;47.540;19.072;2023-03-05T13:03:03;100105.81;;;10.77;39.92
75497;BME280;64074;47.540;19.072;2023-03-05T13:06:28;100102.06;;;10.32;40.82
75497;BME280;64074;47.540;19.072;2023-03-05T13:09:33;100102.47;;;8.80;44.02
75497;BME280;64074;47.540;19.072;2023-03-05T13:12:38;100110.72;;;8.89;44.37
75497;BME280;64074;47.540;19.072;2023-03-05T13:15:48;100114.16;;;8.23;46.23
75497;BME280;64074;47.540;19.072;2023-03-05T13:18:52;100089.41;;;7.82;45.48
75497;BME280;64074;47.540;19.072;2023-03-05T13:21:57;100105.75;;;7.22;47.33
75497;BME280;64074;47.540;19.072;2023-03-05T13:25:15;100097.66;;;7.61;47.11
75497;BME280;64074;47.540;19.072;2023-03-05T13:28:22;100107.31;;;7.72;47.90
75497;BME280;64074;47.540;19.072;2023-03-05T13:31:25;100115.44;;;7.23;49.11
75497;BME280;64074;47.540;19.072;2023-03-05T13:34:31;100108.00;;;7.49;48.19
75497;BME280;64074;47.540;19.072;2023-03-05T13:37:49;100102.09;;;7.47;48.50
75497;BME280;64074;47.540;19.072;2023-03-05T13:44:19;100102.75;;;7.29;49.35
75497;BME280;64074;47.540;19.072;2023-03-05T13:47:25;100107.66;;;7.22;48.90
75497;BME280;64074;47.540;19.072;2023-03-05T13:50:37;100092.56;;;7.21;49.22
75497;BME280;64074;47.540;19.072;2023-03-05T13:53:40;100102.03;;;7.08;49.24
75497;BME280;64074;47.540;19.072;2023-03-05T13:59:54;100110.50;;;6.86;49.14
75497;BME280;64074;47.540;19.072;2023-03-05T14:03:09;100105.75;;;6.58;49.52
75497;BME280;64074;47.540;19.072;2023-03-05T14:06:18;100098.25;;;7.09;48.61
75497;BME280;64074;47.540;19.072;2023-03-05T14:09:25;100095.56;;;7.09;49.04
75497;BME280;64074;47.540;19.072;2023-03-05T14:12:37;100103.47;;;6.95;48.73
75497;BME280;64074;47.540;19.072;2023-03-05T14:16:23;100099.59;;;6.52;49.90
75497;BME280;64074;47.540;19.072;2023-03-05T14:19:36;100109.22;;;6.63;49.37
75497;BME280;64074;47.540;19.072;2023-03-05T14:22:43;100099.78;;;6.66;49.81
75497;BME280;64074;47.540;19.072;2023-03-05T14:25:47;100099.91;;;7.05;49.51
75497;BME280;64074;47.540;19.072;2023-03-05T14:28:52;100084.31;;;6.97;49.32
75497;BME280;64074;47.540;19.072;2023-03-05T14:31:57;100090.91;;;6.65;49.87
75497;BME280;64074;47.540;19.072;2023-03-05T14:35:03;100075.53;;;6.76;50.30
75497;BME280;64074;47.540;19.072;2023-03-05T14:38:25;100077.81;;;6.33;51.59
75497;BME280;64074;47.540;19.072;2023-03-05T14:41:40;100083.72;;;6.45;51.33
75497;BME280;64074;47.540;19.072;2023-03-05T14:44:45;100068.00;;;6.68;51.45
75497;BME280;64074;47.540;19.072;2023-03-05T14:47:53;100057.16;;;6.83;50.74
75497;BME280;64074;47.540;19.072;2023-03-05T14:50:56;100042.16;;;6.72;50.60
75497;BME280;64074;47.540;19.072;2023-03-05T14:53:59;100038.28;;;6.88;50.44
75497;BME280;64074;47.540;19.072;2023-03-05T14:57:03;100050.38;;;6.96;50.14
75497;BME280;64074;47.540;19.072;2023-03-05T15:00:22;100050.59;;;7.04;49.97
75497;BME280;64074;47.540;19.072;2023-03-05T15:03:25;100045.69;;;7.12;49.54
75497;BME280;64074;47.540;19.072;2023-03-05T15:06:33;100051.31;;;7.54;48.65
75497;BME280;64074;47.540;19.072;2023-03-05T15:09:38;100050.75;;;7.23;49.26
75497;BME280;64074;47.540;19.072;2023-03-05T15:12:41;100044.50;;;7.28;49.36
75497;BME280;64074;47.540;19.072;2023-03-05T15:15:44;100058.34;;;7.11;49.75
75497;BME280;64074;47.540;19.072;2023-03-05T15:18:49;100058.28;;;6.77;50.35
75497;BME280;64074;47.540;19.072;2023-03-05T15:21:52;100052.66;;;6.73;50.71
75497;BME280;64074;47.540;19.072;2023-03-05T15:24:55;100061.88;;;6.52;50.82
75497;BME280;64074;47.540;19.072;2023-03-05T15:27:58;100054.81;;;6.71;51.73
75497;BME280;64074;47.540;19.072;2023-03-05T15:31:01;100059.69;;;6.59;50.92
75497;BME280;64074;47.540;19.072;2023-03-05T15:34:05;100046.63;;;6.87;50.28
75497;BME280;64074;47.540;19.072;2023-03-05T15:37:08;100054.03;;;6.61;50.25
75497;BME280;64074;47.540;19.072;2023-03-05T15:40:12;100054.63;;;6.42;51.03
75497;BME280;64074;47.540;19.072;2023-03-05T15:43:16;100062.78;;;6.27;51.29
75497;BME280;64074;47.540;19.072;2023-03-05T15:46:18;100075.47;;;6.06;50.61
75497;BME280;64074;47.540;19.072;2023-03-05T15:49:22;100072.47;;;6.18;51.74
75497;BME280;64074;47.540;19.072;2023-03-05T15:52:25;100074.91;;;6.25;51.03
75497;BME280;64074;47.540;19.072;2023-03-05T15:55:30;100069.53;;;5.94;51.83
75497;BME280;64074;47.540;19.072;2023-03-05T15:58:33;100076.53;;;6.21;51.79
75497;BME280;64074;47.540;19.072;2023-03-05T16:01:36;100067.63;;;6.15;51.85
75497;BME280;64074;47.540;19.072;2023-03-05T16:04:39;100076.03;;;5.98;51.55
75497;BME280;64074;47.540;19.072;2023-03-05T16:07:44;100067.66;;;5.95;52.24
75497;BME280;64074;47.540;19.072;2023-03-05T16:10:47;100078.16;;;5.61;52.36
75497;BME280;64074;47.540;19.072;2023-03-05T16:13:50;100080.81;;;5.66;52.06
75497;BME280;64074;47.540;19.072;2023-03-05T16:16:54;100088.09;;;5.65;52.07
75497;BME280;64074;47.540;19.072;2023-03-05T16:19:57;100084.59;;;5.70;52.37
75497;BME280;64074;47.540;19.072;2023-03-05T16:23:01;100086.47;;;5.34;53.12
75497;BME280;64074;47.540;19.072;2023-03-05T16:26:04;100092.66;;;5.60;53.08
75497;BME280;64074;47.540;19.072;2023-03-05T16:29:07;100091.63;;;5.71;52.61
75497;BME280;64074;47.540;19.072;2023-03-05T16:32:10;100098.56;;;5.67;52.04
75497;BME280;64074;47.540;19.072;2023-03-05T16:35:13;100096.19;;;5.70;51.84
75497;BME280;64074;47.540;19.072;2023-03-05T16:38:16;100096.16;;;5.65;50.96
75497;BME280;64074;47.540;19.072;2023-03-05T16:41:22;100088.91;;;5.45;51.14
75497;BME280;64074;47.540;19.072;2023-03-05T16:44:26;100095.91;;;5.51;50.53
75497;BME280;64074;47.540;19.072;2023-03-05T16:47:28;100095.63;;;5.58;49.84
75497;BME280;64074;47.540;19.072;2023-03-05T16:50:32;100094.00;;;5.47;49.25
75497;BME280;64074;47.540;19.072;2023-03-05T16:53:35;100089.16;;;5.59;48.92
75497;BME280;64074;47.540;19.072;2023-03-05T16:56:38;100096.72;;;5.72;48.73
75497;BME280;64074;47.540;19.072;2023-03-05T16:59:41;100085.13;;;5.51;48.46
75497;BME280;64074;47.540;19.072;2023-03-05T17:02:46;100089.72;;;5.51;48.60